メインページ
METAR-TAF:

METAR-TAF

空港 :

オーガスタ, メイン州, アメリカ合衆国

緯度: 44-19-14N, 経度: 069-47-50W, 海抜: 107m

現時点の気象観測

当レポートは58分前の16:53(UTC)に作成
の風 9kt
気温 24°C
湿度 61%
気圧 1022 hPa
視程: 16.1km
晴天

METAR: KAUG 261653Z AUTO 19009KT 10SM CLR 24/16 A3018 RMK AO2 SLP219 T02440156

時間: 13:51 (17:51 UTC)

予報

当レポートは31分前の17:20(UTC)に作成
予報は26日の 18時(UTC)から 27日の 18時(UTC)まで有効
の風 6kt
視程: 10km
高度5000ftの雲は散在している
27日の 0500時(UTC)から
の風 3kt
視程: 0.4km
高度100ftの
27日の 1200時(UTC)から
の風 4kt
視程: 10km
高度25000ftの雲はほとんどない

TAF: KAUG 261720Z 2618/2718 18006KT P6SM SCT050 FM270500 18003KT 1/4SM FG VV001 FM271200 19004KT P6SM FEW250

4,000以上の空港の気象観測と天気予報(METAR報とTAF報)

利用可能な観測所は地図上に黄色い丸と赤い丸で示す。

丸の上にカーソルを重ねると観測所名を参照できる。

次にクリックすると気象観測と天気予報を参照できる。

マップの切り替え:黒色「×」印の緑ボタンをクリックして拡大、「-」印の緑ボタンをクリックして縮小、緑色の三角印をクリックして隣りの地図に切り替え


METAR-TAF: